sensor_id;sensor_type;location;lat;lon;timestamp;P1;durP1;ratioP1;P2;durP2;ratioP2
52942;SDS011;38809;53.300;6.614;2024-01-30T00:01:42;16.02;;;13.90;;
52942;SDS011;38809;53.300;6.614;2024-01-30T00:04:08;18.52;;;13.98;;
52942;SDS011;38809;53.300;6.614;2024-01-30T00:06:34;19.80;;;14.68;;
52942;SDS011;38809;53.300;6.614;2024-01-30T00:09:00;17.80;;;13.65;;
52942;SDS011;38809;53.300;6.614;2024-01-30T00:11:26;17.85;;;14.00;;
52942;SDS011;38809;53.300;6.614;2024-01-30T00:13:54;17.75;;;13.98;;
52942;SDS011;38809;53.300;6.614;2024-01-30T00:16:23;17.27;;;13.77;;
52942;SDS011;38809;53.300;6.614;2024-01-30T00:18:53;17.85;;;14.32;;
52942;SDS011;38809;53.300;6.614;2024-01-30T00:21:20;18.58;;;14.90;;
52942;SDS011;38809;53.300;6.614;2024-01-30T00:26:12;16.27;;;12.73;;
52942;SDS011;38809;53.300;6.614;2024-01-30T00:28:40;18.38;;;14.38;;
52942;SDS011;38809;53.300;6.614;2024-01-30T00:31:06;17.65;;;13.95;;
52942;SDS011;38809;53.300;6.614;2024-01-30T00:33:32;19.50;;;13.95;;
52942;SDS011;38809;53.300;6.614;2024-01-30T00:35:58;18.80;;;14.10;;
52942;SDS011;38809;53.300;6.614;2024-01-30T00:38:24;16.85;;;14.35;;
52942;SDS011;38809;53.300;6.614;2024-01-30T00:40:51;17.33;;;13.98;;
52942;SDS011;38809;53.300;6.614;2024-01-30T00:43:17;18.20;;;14.15;;
52942;SDS011;38809;53.300;6.614;2024-01-30T00:45:43;17.17;;;14.82;;
52942;SDS011;38809;53.300;6.614;2024-01-30T00:48:09;19.02;;;13.75;;
52942;SDS011;38809;53.300;6.614;2024-01-30T00:50:35;15.90;;;13.40;;
52942;SDS011;38809;53.300;6.614;2024-01-30T00:53:01;16.75;;;13.32;;
52942;SDS011;38809;53.300;6.614;2024-01-30T00:55:28;16.15;;;12.43;;
52942;SDS011;38809;53.300;6.614;2024-01-30T00:57:54;16.02;;;13.45;;
52942;SDS011;38809;53.300;6.614;2024-01-30T01:00:20;18.10;;;13.52;;
52942;SDS011;38809;53.300;6.614;2024-01-30T01:02:47;16.85;;;12.90;;
52942;SDS011;38809;53.300;6.614;2024-01-30T01:05:13;17.20;;;13.80;;
52942;SDS011;38809;53.300;6.614;2024-01-30T01:07:39;18.23;;;14.93;;
52942;SDS011;38809;53.300;6.614;2024-01-30T01:10:07;17.80;;;14.50;;
52942;SDS011;38809;53.300;6.614;2024-01-30T01:12:33;18.63;;;15.20;;
52942;SDS011;38809;53.300;6.614;2024-01-30T01:14:59;19.13;;;15.15;;
52942;SDS011;38809;53.300;6.614;2024-01-30T01:17:27;18.85;;;14.40;;
52942;SDS011;38809;53.300;6.614;2024-01-30T01:19:53;19.95;;;14.82;;
52942;SDS011;38809;53.300;6.614;2024-01-30T01:22:19;19.02;;;14.70;;
52942;SDS011;38809;53.300;6.614;2024-01-30T01:24:46;16.35;;;14.15;;
52942;SDS011;38809;53.300;6.614;2024-01-30T01:27:12;18.02;;;14.38;;
52942;SDS011;38809;53.300;6.614;2024-01-30T01:29:38;18.10;;;14.30;;
52942;SDS011;38809;53.300;6.614;2024-01-30T01:32:04;19.50;;;14.45;;
52942;SDS011;38809;53.300;6.614;2024-01-30T01:34:30;19.20;;;14.65;;
52942;SDS011;38809;53.300;6.614;2024-01-30T01:36:56;18.95;;;15.15;;
52942;SDS011;38809;53.300;6.614;2024-01-30T01:39:23;18.20;;;13.75;;
52942;SDS011;38809;53.300;6.614;2024-01-30T01:41:49;19.13;;;14.57;;
52942;SDS011;38809;53.300;6.614;2024-01-30T01:44:15;20.95;;;14.55;;
52942;SDS011;38809;53.300;6.614;2024-01-30T01:46:41;19.05;;;15.57;;
52942;SDS011;38809;53.300;6.614;2024-01-30T01:49:07;19.45;;;15.35;;
52942;SDS011;38809;53.300;6.614;2024-01-30T01:54:00;17.02;;;13.65;;
52942;SDS011;38809;53.300;6.614;2024-01-30T01:56:27;18.27;;;14.38;;
52942;SDS011;38809;53.300;6.614;2024-01-30T01:58:55;19.73;;;15.52;;
52942;SDS011;38809;53.300;6.614;2024-01-30T02:01:21;21.13;;;14.90;;
52942;SDS011;38809;53.300;6.614;2024-01-30T02:03:49;20.05;;;15.57;;
52942;SDS011;38809;53.300;6.614;2024-01-30T02:06:15;20.48;;;14.95;;
52942;SDS011;38809;53.300;6.614;2024-01-30T02:08:42;20.15;;;15.10;;
52942;SDS011;38809;53.300;6.614;2024-01-30T02:11:08;20.00;;;15.85;;
52942;SDS011;38809;53.300;6.614;2024-01-30T02:13:37;17.52;;;14.43;;
52942;SDS011;38809;53.300;6.614;2024-01-30T02:16:03;19.30;;;15.48;;
52942;SDS011;38809;53.300;6.614;2024-01-30T02:18:29;20.33;;;15.93;;
52942;SDS011;38809;53.300;6.614;2024-01-30T02:20:56;18.40;;;14.93;;
52942;SDS011;38809;53.300;6.614;2024-01-30T02:23:25;18.70;;;14.70;;
52942;SDS011;38809;53.300;6.614;2024-01-30T02:25:51;20.48;;;15.82;;
52942;SDS011;38809;53.300;6.614;2024-01-30T02:28:18;19.88;;;15.15;;
52942;SDS011;38809;53.300;6.614;2024-01-30T02:30:44;20.15;;;15.85;;
52942;SDS011;38809;53.300;6.614;2024-01-30T02:35:36;20.83;;;15.60;;
52942;SDS011;38809;53.300;6.614;2024-01-30T02:38:03;21.48;;;15.23;;
52942;SDS011;38809;53.300;6.614;2024-01-30T02:40:29;18.92;;;14.75;;
52942;SDS011;38809;53.300;6.614;2024-01-30T02:42:56;20.17;;;15.55;;
52942;SDS011;38809;53.300;6.614;2024-01-30T02:45:22;20.35;;;15.95;;
52942;SDS011;38809;53.300;6.614;2024-01-30T02:47:48;20.42;;;16.15;;
52942;SDS011;38809;53.300;6.614;2024-01-30T02:50:14;19.17;;;15.30;;
52942;SDS011;38809;53.300;6.614;2024-01-30T02:52:41;19.83;;;15.25;;
52942;SDS011;38809;53.300;6.614;2024-01-30T02:55:10;21.25;;;16.13;;
52942;SDS011;38809;53.300;6.614;2024-01-30T02:57:37;18.20;;;14.70;;
52942;SDS011;38809;53.300;6.614;2024-01-30T03:00:03;18.05;;;15.00;;
52942;SDS011;38809;53.300;6.614;2024-01-30T03:02:31;19.50;;;14.88;;
52942;SDS011;38809;53.300;6.614;2024-01-30T03:04:57;19.55;;;15.60;;
52942;SDS011;38809;53.300;6.614;2024-01-30T03:07:23;19.83;;;14.90;;
52942;SDS011;38809;53.300;6.614;2024-01-30T03:09:49;20.35;;;15.65;;
52942;SDS011;38809;53.300;6.614;2024-01-30T03:12:15;18.98;;;14.70;;
52942;SDS011;38809;53.300;6.614;2024-01-30T03:14:42;21.08;;;15.30;;
52942;SDS011;38809;53.300;6.614;2024-01-30T03:17:08;20.25;;;15.52;;
52942;SDS011;38809;53.300;6.614;2024-01-30T03:19:34;20.23;;;15.32;;
52942;SDS011;38809;53.300;6.614;2024-01-30T03:22:00;19.25;;;14.98;;
52942;SDS011;38809;53.300;6.614;2024-01-30T03:24:26;18.95;;;14.90;;
52942;SDS011;38809;53.300;6.614;2024-01-30T03:26:53;17.05;;;14.63;;
52942;SDS011;38809;53.300;6.614;2024-01-30T03:31:45;20.02;;;14.38;;
52942;SDS011;38809;53.300;6.614;2024-01-30T03:34:11;17.15;;;13.98;;
52942;SDS011;38809;53.300;6.614;2024-01-30T03:36:37;18.48;;;14.73;;
52942;SDS011;38809;53.300;6.614;2024-01-30T03:39:03;17.10;;;13.77;;
52942;SDS011;38809;53.300;6.614;2024-01-30T03:41:29;18.85;;;14.57;;
52942;SDS011;38809;53.300;6.614;2024-01-30T03:43:56;18.02;;;14.48;;
52942;SDS011;38809;53.300;6.614;2024-01-30T03:46:22;18.85;;;15.02;;
52942;SDS011;38809;53.300;6.614;2024-01-30T03:48:48;21.13;;;13.98;;
52942;SDS011;38809;53.300;6.614;2024-01-30T03:51:14;21.10;;;14.90;;
52942;SDS011;38809;53.300;6.614;2024-01-30T03:56:07;20.20;;;15.25;;
52942;SDS011;38809;53.300;6.614;2024-01-30T03:58:33;18.80;;;14.00;;
52942;SDS011;38809;53.300;6.614;2024-01-30T04:00:59;17.63;;;13.15;;
52942;SDS011;38809;53.300;6.614;2024-01-30T04:03:25;18.60;;;14.18;;
52942;SDS011;38809;53.300;6.614;2024-01-30T04:05:52;18.63;;;14.43;;
52942;SDS011;38809;53.300;6.614;2024-01-30T04:08:18;21.42;;;15.00;;
52942;SDS011;38809;53.300;6.614;2024-01-30T04:10:44;20.02;;;14.60;;
52942;SDS011;38809;53.300;6.614;2024-01-30T04:13:11;17.98;;;14.10;;
52942;SDS011;38809;53.300;6.614;2024-01-30T04:15:37;18.17;;;13.98;;
52942;SDS011;38809;53.300;6.614;2024-01-30T04:18:03;19.95;;;14.68;;
52942;SDS011;38809;53.300;6.614;2024-01-30T04:20:29;18.55;;;13.60;;
52942;SDS011;38809;53.300;6.614;2024-01-30T04:22:55;17.17;;;14.00;;
52942;SDS011;38809;53.300;6.614;2024-01-30T04:25:21;19.48;;;14.80;;
52942;SDS011;38809;53.300;6.614;2024-01-30T04:27:47;19.50;;;14.75;;
52942;SDS011;38809;53.300;6.614;2024-01-30T04:30:14;19.50;;;14.45;;
52942;SDS011;38809;53.300;6.614;2024-01-30T04:32:40;15.57;;;13.38;;
52942;SDS011;38809;53.300;6.614;2024-01-30T04:35:06;19.50;;;14.50;;
52942;SDS011;38809;53.300;6.614;2024-01-30T04:37:32;18.80;;;14.40;;
52942;SDS011;38809;53.300;6.614;2024-01-30T04:39:58;17.90;;;14.25;;
52942;SDS011;38809;53.300;6.614;2024-01-30T04:42:24;19.63;;;14.45;;
52942;SDS011;38809;53.300;6.614;2024-01-30T04:44:51;20.83;;;14.85;;
52942;SDS011;38809;53.300;6.614;2024-01-30T04:47:17;20.40;;;14.00;;
52942;SDS011;38809;53.300;6.614;2024-01-30T04:49:43;19.83;;;14.45;;
52942;SDS011;38809;53.300;6.614;2024-01-30T04:52:09;19.92;;;14.48;;
52942;SDS011;38809;53.300;6.614;2024-01-30T04:54:35;18.88;;;13.40;;
52942;SDS011;38809;53.300;6.614;2024-01-30T04:57:02;16.85;;;12.95;;
52942;SDS011;38809;53.300;6.614;2024-01-30T04:59:28;16.65;;;13.07;;
52942;SDS011;38809;53.300;6.614;2024-01-30T05:01:54;16.48;;;13.02;;
52942;SDS011;38809;53.300;6.614;2024-01-30T05:04:20;16.65;;;13.25;;
52942;SDS011;38809;53.300;6.614;2024-01-30T05:06:47;18.98;;;14.00;;
52942;SDS011;38809;53.300;6.614;2024-01-30T05:09:13;19.73;;;14.02;;
52942;SDS011;38809;53.300;6.614;2024-01-30T05:11:39;16.67;;;13.07;;
52942;SDS011;38809;53.300;6.614;2024-01-30T05:14:06;18.10;;;13.77;;
52942;SDS011;38809;53.300;6.614;2024-01-30T05:16:32;18.55;;;13.30;;
52942;SDS011;38809;53.300;6.614;2024-01-30T05:18:58;16.40;;;12.88;;
52942;SDS011;38809;53.300;6.614;2024-01-30T05:23:51;19.48;;;12.80;;
52942;SDS011;38809;53.300;6.614;2024-01-30T05:26:17;17.05;;;13.27;;
52942;SDS011;38809;53.300;6.614;2024-01-30T05:28:43;18.92;;;13.68;;
52942;SDS011;38809;53.300;6.614;2024-01-30T05:31:09;17.38;;;13.23;;
52942;SDS011;38809;53.300;6.614;2024-01-30T05:33:36;16.70;;;12.90;;
52942;SDS011;38809;53.300;6.614;2024-01-30T05:36:02;15.95;;;12.20;;
52942;SDS011;38809;53.300;6.614;2024-01-30T05:40:55;15.75;;;12.43;;
52942;SDS011;38809;53.300;6.614;2024-01-30T05:43:23;16.42;;;12.60;;
52942;SDS011;38809;53.300;6.614;2024-01-30T05:45:49;16.15;;;12.40;;
52942;SDS011;38809;53.300;6.614;2024-01-30T05:48:15;16.55;;;12.85;;
52942;SDS011;38809;53.300;6.614;2024-01-30T05:50:41;16.02;;;12.68;;
52942;SDS011;38809;53.300;6.614;2024-01-30T05:53:08;16.83;;;13.13;;
52942;SDS011;38809;53.300;6.614;2024-01-30T05:55:34;16.52;;;12.02;;
52942;SDS011;38809;53.300;6.614;2024-01-30T05:58:00;16.05;;;12.07;;
52942;SDS011;38809;53.300;6.614;2024-01-30T06:00:26;17.05;;;12.05;;
52942;SDS011;38809;53.300;6.614;2024-01-30T06:02:52;16.75;;;12.18;;
52942;SDS011;38809;53.300;6.614;2024-01-30T06:05:18;18.50;;;11.93;;
52942;SDS011;38809;53.300;6.614;2024-01-30T06:07:44;17.23;;;12.32;;
52942;SDS011;38809;53.300;6.614;2024-01-30T06:10:11;16.48;;;12.63;;
52942;SDS011;38809;53.300;6.614;2024-01-30T06:12:37;16.55;;;12.30;;
52942;SDS011;38809;53.300;6.614;2024-01-30T06:15:03;18.55;;;12.68;;
52942;SDS011;38809;53.300;6.614;2024-01-30T06:17:29;16.80;;;12.93;;
52942;SDS011;38809;53.300;6.614;2024-01-30T06:19:55;16.63;;;11.75;;
52942;SDS011;38809;53.300;6.614;2024-01-30T06:22:22;16.33;;;11.98;;
52942;SDS011;38809;53.300;6.614;2024-01-30T06:24:48;16.55;;;12.75;;
52942;SDS011;38809;53.300;6.614;2024-01-30T06:27:14;16.85;;;12.88;;
52942;SDS011;38809;53.300;6.614;2024-01-30T06:29:41;15.02;;;12.18;;
52942;SDS011;38809;53.300;6.614;2024-01-30T06:32:08;16.08;;;12.52;;
52942;SDS011;38809;53.300;6.614;2024-01-30T06:34:34;15.20;;;11.48;;
52942;SDS011;38809;53.300;6.614;2024-01-30T06:37:01;16.38;;;11.82;;
52942;SDS011;38809;53.300;6.614;2024-01-30T06:39:27;16.92;;;11.48;;
52942;SDS011;38809;53.300;6.614;2024-01-30T06:41:53;15.38;;;11.55;;
52942;SDS011;38809;53.300;6.614;2024-01-30T06:44:19;16.98;;;11.27;;
52942;SDS011;38809;53.300;6.614;2024-01-30T06:46:45;15.30;;;12.43;;
52942;SDS011;38809;53.300;6.614;2024-01-30T06:49:12;15.25;;;11.65;;
52942;SDS011;38809;53.300;6.614;2024-01-30T06:51:38;15.45;;;11.88;;
52942;SDS011;38809;53.300;6.614;2024-01-30T06:54:04;14.70;;;11.00;;
52942;SDS011;38809;53.300;6.614;2024-01-30T06:56:30;15.70;;;11.82;;
52942;SDS011;38809;53.300;6.614;2024-01-30T06:58:56;16.05;;;11.40;;
52942;SDS011;38809;53.300;6.614;2024-01-30T07:01:30;13.85;;;11.48;;
52942;SDS011;38809;53.300;6.614;2024-01-30T07:03:57;15.25;;;11.65;;
52942;SDS011;38809;53.300;6.614;2024-01-30T07:06:23;14.55;;;10.80;;
52942;SDS011;38809;53.300;6.614;2024-01-30T07:08:50;14.95;;;11.52;;
52942;SDS011;38809;53.300;6.614;2024-01-30T07:11:21;14.73;;;11.52;;
52942;SDS011;38809;53.300;6.614;2024-01-30T07:13:50;15.82;;;11.95;;
52942;SDS011;38809;53.300;6.614;2024-01-30T07:16:16;14.02;;;11.20;;
52942;SDS011;38809;53.300;6.614;2024-01-30T07:18:43;14.60;;;11.38;;
52942;SDS011;38809;53.300;6.614;2024-01-30T07:21:09;14.13;;;11.05;;
52942;SDS011;38809;53.300;6.614;2024-01-30T07:23:35;16.27;;;12.02;;
52942;SDS011;38809;53.300;6.614;2024-01-30T07:26:04;17.02;;;11.43;;
52942;SDS011;38809;53.300;6.614;2024-01-30T07:28:31;13.23;;;10.55;;
52942;SDS011;38809;53.300;6.614;2024-01-30T07:30:58;14.98;;;11.23;;
52942;SDS011;38809;53.300;6.614;2024-01-30T07:33:24;14.20;;;10.70;;
52942;SDS011;38809;53.300;6.614;2024-01-30T07:35:51;16.60;;;11.05;;
52942;SDS011;38809;53.300;6.614;2024-01-30T07:38:18;15.02;;;10.95;;
52942;SDS011;38809;53.300;6.614;2024-01-30T07:40:44;13.88;;;10.77;;
52942;SDS011;38809;53.300;6.614;2024-01-30T07:43:10;15.35;;;11.57;;
52942;SDS011;38809;53.300;6.614;2024-01-30T07:45:36;16.13;;;11.43;;
52942;SDS011;38809;53.300;6.614;2024-01-30T07:50:29;14.55;;;10.88;;
52942;SDS011;38809;53.300;6.614;2024-01-30T07:52:59;16.83;;;11.07;;
52942;SDS011;38809;53.300;6.614;2024-01-30T07:55:25;15.52;;;11.63;;
52942;SDS011;38809;53.300;6.614;2024-01-30T07:57:56;15.10;;;10.98;;
52942;SDS011;38809;53.300;6.614;2024-01-30T08:00:23;15.52;;;10.68;;
52942;SDS011;38809;53.300;6.614;2024-01-30T08:02:50;13.13;;;10.65;;
52942;SDS011;38809;53.300;6.614;2024-01-30T08:05:19;14.52;;;11.35;;
52942;SDS011;38809;53.300;6.614;2024-01-30T08:07:47;14.88;;;10.82;;
52942;SDS011;38809;53.300;6.614;2024-01-30T08:10:13;18.60;;;11.60;;
52942;SDS011;38809;53.300;6.614;2024-01-30T08:12:40;13.27;;;9.68;;
52942;SDS011;38809;53.300;6.614;2024-01-30T08:15:06;13.90;;;10.60;;
52942;SDS011;38809;53.300;6.614;2024-01-30T08:17:32;15.43;;;10.63;;
52942;SDS011;38809;53.300;6.614;2024-01-30T08:19:59;13.50;;;10.52;;
52942;SDS011;38809;53.300;6.614;2024-01-30T08:22:25;15.15;;;10.52;;
52942;SDS011;38809;53.300;6.614;2024-01-30T08:24:51;13.68;;;11.07;;
52942;SDS011;38809;53.300;6.614;2024-01-30T08:27:17;17.05;;;10.90;;
52942;SDS011;38809;53.300;6.614;2024-01-30T08:29:43;13.90;;;10.35;;
52942;SDS011;38809;53.300;6.614;2024-01-30T08:32:09;12.52;;;10.15;;
52942;SDS011;38809;53.300;6.614;2024-01-30T08:34:35;14.20;;;10.75;;
52942;SDS011;38809;53.300;6.614;2024-01-30T08:37:02;15.90;;;10.82;;
52942;SDS011;38809;53.300;6.614;2024-01-30T08:39:28;15.30;;;9.73;;
52942;SDS011;38809;53.300;6.614;2024-01-30T08:41:55;14.95;;;10.40;;
52942;SDS011;38809;53.300;6.614;2024-01-30T08:44:21;14.85;;;10.73;;
52942;SDS011;38809;53.300;6.614;2024-01-30T08:46:47;16.42;;;11.05;;
52942;SDS011;38809;53.300;6.614;2024-01-30T08:49:16;14.43;;;10.57;;
52942;SDS011;38809;53.300;6.614;2024-01-30T08:51:42;12.20;;;9.68;;
52942;SDS011;38809;53.300;6.614;2024-01-30T08:54:08;15.07;;;10.00;;
52942;SDS011;38809;53.300;6.614;2024-01-30T08:56:34;14.48;;;11.20;;
52942;SDS011;38809;53.300;6.614;2024-01-30T08:59:00;12.38;;;9.68;;
52942;SDS011;38809;53.300;6.614;2024-01-30T09:01:26;14.50;;;11.25;;
52942;SDS011;38809;53.300;6.614;2024-01-30T09:03:53;14.77;;;9.57;;
52942;SDS011;38809;53.300;6.614;2024-01-30T09:06:19;13.80;;;9.77;;
52942;SDS011;38809;53.300;6.614;2024-01-30T09:08:45;14.25;;;9.82;;
52942;SDS011;38809;53.300;6.614;2024-01-30T09:11:12;12.95;;;9.52;;
52942;SDS011;38809;53.300;6.614;2024-01-30T09:13:38;14.13;;;9.68;;
52942;SDS011;38809;53.300;6.614;2024-01-30T09:16:05;13.40;;;9.55;;
52942;SDS011;38809;53.300;6.614;2024-01-30T09:18:31;15.45;;;10.13;;
52942;SDS011;38809;53.300;6.614;2024-01-30T09:20:57;12.57;;;9.80;;
52942;SDS011;38809;53.300;6.614;2024-01-30T09:23:23;12.38;;;9.88;;
52942;SDS011;38809;53.300;6.614;2024-01-30T09:25:50;13.32;;;10.18;;
52942;SDS011;38809;53.300;6.614;2024-01-30T09:28:19;16.50;;;9.63;;
52942;SDS011;38809;53.300;6.614;2024-01-30T09:30:45;11.85;;;9.50;;
52942;SDS011;38809;53.300;6.614;2024-01-30T09:33:11;13.02;;;9.90;;
52942;SDS011;38809;53.300;6.614;2024-01-30T09:35:37;13.60;;;10.07;;
52942;SDS011;38809;53.300;6.614;2024-01-30T09:38:04;15.00;;;9.77;;
52942;SDS011;38809;53.300;6.614;2024-01-30T09:40:30;11.77;;;9.43;;
52942;SDS011;38809;53.300;6.614;2024-01-30T09:42:56;14.43;;;9.43;;
52942;SDS011;38809;53.300;6.614;2024-01-30T09:45:26;14.52;;;10.00;;
52942;SDS011;38809;53.300;6.614;2024-01-30T09:47:52;14.50;;;10.20;;
52942;SDS011;38809;53.300;6.614;2024-01-30T09:50:21;13.85;;;9.25;;
52942;SDS011;38809;53.300;6.614;2024-01-30T09:52:47;11.88;;;9.27;;
52942;SDS011;38809;53.300;6.614;2024-01-30T09:55:13;14.13;;;10.70;;
52942;SDS011;38809;53.300;6.614;2024-01-30T09:57:41;14.75;;;10.27;;
52942;SDS011;38809;53.300;6.614;2024-01-30T10:00:07;14.10;;;9.90;;
52942;SDS011;38809;53.300;6.614;2024-01-30T10:02:34;14.10;;;9.13;;
52942;SDS011;38809;53.300;6.614;2024-01-30T10:07:26;11.98;;;8.65;;
52942;SDS011;38809;53.300;6.614;2024-01-30T10:09:52;13.23;;;9.77;;
52942;SDS011;38809;53.300;6.614;2024-01-30T10:12:19;14.55;;;10.23;;
52942;SDS011;38809;53.300;6.614;2024-01-30T10:14:45;13.98;;;10.25;;
52942;SDS011;38809;53.300;6.614;2024-01-30T10:17:11;16.25;;;10.05;;
52942;SDS011;38809;53.300;6.614;2024-01-30T10:19:38;12.40;;;9.35;;
52942;SDS011;38809;53.300;6.614;2024-01-30T10:22:05;13.05;;;9.32;;
52942;SDS011;38809;53.300;6.614;2024-01-30T10:24:32;14.85;;;9.38;;
52942;SDS011;38809;53.300;6.614;2024-01-30T10:26:59;12.98;;;9.25;;
52942;SDS011;38809;53.300;6.614;2024-01-30T10:29:25;14.60;;;10.10;;
52942;SDS011;38809;53.300;6.614;2024-01-30T10:31:58;13.80;;;9.60;;
52942;SDS011;38809;53.300;6.614;2024-01-30T10:34:24;13.50;;;10.07;;
52942;SDS011;38809;53.300;6.614;2024-01-30T10:39:17;14.57;;;9.90;;
52942;SDS011;38809;53.300;6.614;2024-01-30T10:41:43;12.77;;;9.82;;
52942;SDS011;38809;53.300;6.614;2024-01-30T10:46:37;13.55;;;10.40;;
52942;SDS011;38809;53.300;6.614;2024-01-30T10:49:04;15.02;;;10.50;;
52942;SDS011;38809;53.300;6.614;2024-01-30T10:51:31;14.98;;;10.10;;
52942;SDS011;38809;53.300;6.614;2024-01-30T10:53:58;12.70;;;9.65;;
52942;SDS011;38809;53.300;6.614;2024-01-30T10:56:24;14.88;;;9.63;;
52942;SDS011;38809;53.300;6.614;2024-01-30T10:58:51;14.18;;;9.93;;
52942;SDS011;38809;53.300;6.614;2024-01-30T11:03:43;14.35;;;10.57;;
52942;SDS011;38809;53.300;6.614;2024-01-30T11:06:13;13.73;;;9.48;;
52942;SDS011;38809;53.300;6.614;2024-01-30T11:08:43;14.48;;;10.45;;
52942;SDS011;38809;53.300;6.614;2024-01-30T11:11:09;14.45;;;9.63;;
52942;SDS011;38809;53.300;6.614;2024-01-30T11:13:35;14.90;;;9.68;;
52942;SDS011;38809;53.300;6.614;2024-01-30T11:16:05;12.43;;;8.68;;
52942;SDS011;38809;53.300;6.614;2024-01-30T11:18:31;12.43;;;8.20;;
52942;SDS011;38809;53.300;6.614;2024-01-30T11:20:58;14.23;;;7.47;;
52942;SDS011;38809;53.300;6.614;2024-01-30T11:23:27;12.27;;;7.50;;
52942;SDS011;38809;53.300;6.614;2024-01-30T11:25:54;10.75;;;5.90;;
52942;SDS011;38809;53.300;6.614;2024-01-30T11:28:21;10.07;;;6.47;;
52942;SDS011;38809;53.300;6.614;2024-01-30T11:30:47;12.35;;;6.38;;
52942;SDS011;38809;53.300;6.614;2024-01-30T11:33:16;8.32;;;6.30;;
52942;SDS011;38809;53.300;6.614;2024-01-30T11:35:52;10.02;;;5.88;;
52942;SDS011;38809;53.300;6.614;2024-01-30T11:38:19;9.23;;;5.88;;
52942;SDS011;38809;53.300;6.614;2024-01-30T11:40:45;10.75;;;5.88;;
52942;SDS011;38809;53.300;6.614;2024-01-30T11:43:11;9.88;;;5.40;;
52942;SDS011;38809;53.300;6.614;2024-01-30T11:45:38;10.93;;;5.70;;
52942;SDS011;38809;53.300;6.614;2024-01-30T11:48:04;9.20;;;4.68;;
52942;SDS011;38809;53.300;6.614;2024-01-30T11:50:34;10.02;;;4.78;;
52942;SDS011;38809;53.300;6.614;2024-01-30T11:53:00;8.20;;;4.53;;
52942;SDS011;38809;53.300;6.614;2024-01-30T11:55:26;8.55;;;4.72;;
52942;SDS011;38809;53.300;6.614;2024-01-30T11:57:59;9.20;;;4.03;;
52942;SDS011;38809;53.300;6.614;2024-01-30T12:00:26;9.00;;;4.63;;
52942;SDS011;38809;53.300;6.614;2024-01-30T12:02:52;8.93;;;4.60;;
52942;SDS011;38809;53.300;6.614;2024-01-30T12:05:24;7.03;;;3.83;;
52942;SDS011;38809;53.300;6.614;2024-01-30T12:07:50;6.35;;;3.10;;
52942;SDS011;38809;53.300;6.614;2024-01-30T12:10:17;5.63;;;2.60;;
52942;SDS011;38809;53.300;6.614;2024-01-30T12:12:45;9.73;;;3.40;;
52942;SDS011;38809;53.300;6.614;2024-01-30T12:15:12;5.95;;;2.85;;
52942;SDS011;38809;53.300;6.614;2024-01-30T12:20:08;4.38;;;2.10;;
52942;SDS011;38809;53.300;6.614;2024-01-30T12:22:42;3.85;;;1.70;;
52942;SDS011;38809;53.300;6.614;2024-01-30T12:25:08;7.07;;;2.30;;
52942;SDS011;38809;53.300;6.614;2024-01-30T12:27:35;3.55;;;1.73;;
52942;SDS011;38809;53.300;6.614;2024-01-30T12:30:11;3.70;;;1.70;;
52942;SDS011;38809;53.300;6.614;2024-01-30T12:32:39;6.85;;;1.80;;
52942;SDS011;38809;53.300;6.614;2024-01-30T12:35:09;5.43;;;1.90;;
52942;SDS011;38809;53.300;6.614;2024-01-30T12:37:36;8.05;;;2.25;;
52942;SDS011;38809;53.300;6.614;2024-01-30T12:40:02;7.13;;;2.38;;
52942;SDS011;38809;53.300;6.614;2024-01-30T12:42:28;6.45;;;1.95;;
52942;SDS011;38809;53.300;6.614;2024-01-30T12:44:56;2.97;;;1.02;;
52942;SDS011;38809;53.300;6.614;2024-01-30T12:47:23;3.08;;;1.15;;
52942;SDS011;38809;53.300;6.614;2024-01-30T12:49:50;1.33;;;0.70;;
52942;SDS011;38809;53.300;6.614;2024-01-30T12:52:18;2.20;;;0.80;;
52942;SDS011;38809;53.300;6.614;2024-01-30T12:54:45;2.83;;;0.90;;
52942;SDS011;38809;53.300;6.614;2024-01-30T12:57:11;2.42;;;0.80;;
52942;SDS011;38809;53.300;6.614;2024-01-30T12:59:37;3.15;;;0.88;;
52942;SDS011;38809;53.300;6.614;2024-01-30T13:02:04;2.45;;;0.93;;
52942;SDS011;38809;53.300;6.614;2024-01-30T13:04:30;2.53;;;1.00;;
52942;SDS011;38809;53.300;6.614;2024-01-30T13:06:56;1.63;;;0.70;;
52942;SDS011;38809;53.300;6.614;2024-01-30T13:09:23;2.40;;;0.82;;
52942;SDS011;38809;53.300;6.614;2024-01-30T13:11:49;3.00;;;0.93;;
52942;SDS011;38809;53.300;6.614;2024-01-30T13:14:16;3.42;;;0.80;;
52942;SDS011;38809;53.300;6.614;2024-01-30T13:19:09;2.58;;;0.85;;
52942;SDS011;38809;53.300;6.614;2024-01-30T13:21:35;2.55;;;0.80;;
52942;SDS011;38809;53.300;6.614;2024-01-30T13:24:01;2.65;;;0.70;;
52942;SDS011;38809;53.300;6.614;2024-01-30T13:26:27;1.50;;;0.77;;
52942;SDS011;38809;53.300;6.614;2024-01-30T13:28:55;3.50;;;0.80;;
52942;SDS011;38809;53.300;6.614;2024-01-30T13:31:22;1.30;;;0.80;;
52942;SDS011;38809;53.300;6.614;2024-01-30T13:33:48;2.55;;;0.75;;
52942;SDS011;38809;53.300;6.614;2024-01-30T13:36:14;1.35;;;0.70;;
52942;SDS011;38809;53.300;6.614;2024-01-30T13:38:40;2.03;;;0.90;;
52942;SDS011;38809;53.300;6.614;2024-01-30T13:41:06;3.83;;;1.63;;
52942;SDS011;38809;53.300;6.614;2024-01-30T13:43:33;1.60;;;0.85;;
52942;SDS011;38809;53.300;6.614;2024-01-30T13:45:59;1.65;;;0.73;;
52942;SDS011;38809;53.300;6.614;2024-01-30T13:48:25;2.40;;;0.70;;
52942;SDS011;38809;53.300;6.614;2024-01-30T13:50:53;1.63;;;0.68;;
52942;SDS011;38809;53.300;6.614;2024-01-30T13:53:19;1.77;;;0.80;;
52942;SDS011;38809;53.300;6.614;2024-01-30T13:55:46;2.15;;;0.80;;
52942;SDS011;38809;53.300;6.614;2024-01-30T13:58:12;2.15;;;1.05;;
52942;SDS011;38809;53.300;6.614;2024-01-30T14:00:38;1.83;;;0.90;;
52942;SDS011;38809;53.300;6.614;2024-01-30T14:03:04;3.45;;;1.05;;
52942;SDS011;38809;53.300;6.614;2024-01-30T14:05:30;2.95;;;1.00;;
52942;SDS011;38809;53.300;6.614;2024-01-30T14:07:57;2.42;;;1.17;;
52942;SDS011;38809;53.300;6.614;2024-01-30T14:10:24;3.05;;;1.17;;
52942;SDS011;38809;53.300;6.614;2024-01-30T14:12:50;3.95;;;1.10;;
52942;SDS011;38809;53.300;6.614;2024-01-30T14:15:17;3.45;;;1.27;;
52942;SDS011;38809;53.300;6.614;2024-01-30T14:17:43;2.55;;;1.20;;
52942;SDS011;38809;53.300;6.614;2024-01-30T14:20:10;2.85;;;1.00;;
52942;SDS011;38809;53.300;6.614;2024-01-30T14:22:37;3.60;;;0.95;;
52942;SDS011;38809;53.300;6.614;2024-01-30T14:25:03;3.15;;;0.90;;
52942;SDS011;38809;53.300;6.614;2024-01-30T14:27:30;2.17;;;0.80;;
52942;SDS011;38809;53.300;6.614;2024-01-30T14:29:56;4.45;;;0.77;;
52942;SDS011;38809;53.300;6.614;2024-01-30T14:32:23;1.52;;;0.70;;
52942;SDS011;38809;53.300;6.614;2024-01-30T14:34:49;2.20;;;0.85;;
52942;SDS011;38809;53.300;6.614;2024-01-30T14:37:17;1.92;;;0.70;;
52942;SDS011;38809;53.300;6.614;2024-01-30T14:39:43;2.22;;;0.90;;
52942;SDS011;38809;53.300;6.614;2024-01-30T14:42:09;2.20;;;0.95;;
52942;SDS011;38809;53.300;6.614;2024-01-30T14:44:35;2.20;;;0.80;;
52942;SDS011;38809;53.300;6.614;2024-01-30T14:47:01;1.52;;;0.90;;
52942;SDS011;38809;53.300;6.614;2024-01-30T14:49:28;3.55;;;1.00;;
52942;SDS011;38809;53.300;6.614;2024-01-30T14:51:54;1.88;;;1.10;;
52942;SDS011;38809;53.300;6.614;2024-01-30T14:54:20;3.72;;;1.13;;
52942;SDS011;38809;53.300;6.614;2024-01-30T14:56:46;2.65;;;1.10;;
52942;SDS011;38809;53.300;6.614;2024-01-30T14:59:12;1.48;;;0.90;;